Paddy Guidry — WTG3900 — position and weather

sailwx.info

Track history (hours):
 
Tides and Currents Weather Stations Pressure Air Temp Water Temp Dewpoint Dewpoint Depression Visibility Wind Speed Wind Dir Waves Ship Positions

Paddy Guidry

Owner: CAPTAIN TIMMY INC, GALLIANO, LA. More information available from US FCC via Universal Licensing System and Coast Guard Vessel Documentation Center.

Last reported at 2014-Nov-16 16:30 UTC. Time now 2014-Nov-27 05:40 UTC.
Position N 29°34' W 090°31'.
Warning: this ship's position is 10 days out of date.

; draft 1.5 m.

Type: Tug. MMSI: 366998310.

Date/timePositionNaut miles runAvg speedWind from/ knotsBaromVisibWave heightAir tempDewpointWater temp
2014-Nov-16 16:30N 29°34' W 090°31'8 0.4
2014-Nov-15 22:13N 29°36' W 090°40'0 0.1
2014-Nov-15 21:09N 29°36' W 090°40'0 0.0
2014-Nov-15 20:28N 29°36' W 090°40'4 0.3
2014-Nov-15 05:27N 29°35' W 090°35'6 6.1
2014-Nov-15 04:28N 29°34' W 090°28'28 4.6
2014-Nov-14 22:21N 29°51' W 090°04'2 2.0
2014-Nov-14 21:27N 29°50' W 090°04'  
2014-Nov-08 14:28N 29°34' W 090°33'7 0.7
2014-Nov-08 05:08N 29°36' W 090°40'0 0.0
2014-Nov-08 04:28N 29°36' W 090°40'4 1.9
2014-Nov-08 02:27N 29°35' W 090°36'6 6.1
2014-Nov-08 01:30N 29°34' W 090°29'  
Track history (hours):
 
Tides and Currents Weather Stations Pressure Air Temp Water Temp Dewpoint Dewpoint Depression Visibility Wind Speed Wind Dir Waves Ship Positions

Paddy Guidry

Owner: CAPTAIN TIMMY INC, GALLIANO, LA. More information available from US FCC via Universal Licensing System and Coast Guard Vessel Documentation Center.

Last reported at 2014-Nov-16 16:30 UTC. Time now 2014-Nov-27 05:40 UTC.
Position N 29°34' W 090°31'.
Warning: this ship's position is 10 days out of date.

; draft 1.5 m.

Type: Tug. MMSI: 366998310.

Date/timePositionNaut miles runAvg speedWind from/ knotsBaromVisibWave heightAir tempDewpointWater temp
2014-Nov-16 16:30N 29°34' W 090°31'8 0.4
2014-Nov-15 22:13N 29°36' W 090°40'0 0.1
2014-Nov-15 21:09N 29°36' W 090°40'0 0.0
2014-Nov-15 20:28N 29°36' W 090°40'4 0.3
2014-Nov-15 05:27N 29°35' W 090°35'6 6.1
2014-Nov-15 04:28N 29°34' W 090°28'28 4.6
2014-Nov-14 22:21N 29°51' W 090°04'2 2.0
2014-Nov-14 21:27N 29°50' W 090°04'  
2014-Nov-08 14:28N 29°34' W 090°33'7 0.7
2014-Nov-08 05:08N 29°36' W 090°40'0 0.0
2014-Nov-08 04:28N 29°36' W 090°40'4 1.9
2014-Nov-08 02:27N 29°35' W 090°36'6 6.1
2014-Nov-08 01:30N 29°34' W 090°29'  

Dump ship's entire track history